createdAt,value
2022-08-12T00:11:24.618Z,101212.40
2022-08-12T00:26:46.755Z,101224.34
2022-08-12T00:42:09.009Z,101211.92
2022-08-12T00:57:20.087Z,101208.52
2022-08-12T01:12:24.050Z,101217.70
2022-08-12T01:27:29.253Z,101205.55
2022-08-12T01:42:41.996Z,101202.39
2022-08-12T01:58:11.945Z,101201.70
2022-08-12T02:13:33.210Z,101196.05
2022-08-12T02:28:52.621Z,101199.98
2022-08-12T02:44:00.392Z,101198.94
2022-08-12T02:59:04.448Z,101192.92
2022-08-12T03:14:14.309Z,101195.27
2022-08-12T03:29:19.699Z,101192.89
2022-08-12T03:44:54.165Z,101182.65
2022-08-12T04:00:24.330Z,101183.27
2022-08-12T04:15:31.912Z,101194.96
2022-08-12T04:30:36.853Z,101205.63
2022-08-12T04:45:40.791Z,101198.20
2022-08-12T05:00:43.854Z,101215.50
2022-08-12T05:16:04.970Z,101207.70
2022-08-12T05:31:09.234Z,101194.02
2022-08-12T05:46:12.309Z,101191.21
2022-08-12T06:02:11.482Z,101199.30
2022-08-12T06:16:41.088Z,101192.98
2022-08-12T06:31:45.678Z,101185.92
2022-08-12T06:46:49.365Z,101187.21
2022-08-12T07:01:55.246Z,101187.52
2022-08-12T07:17:02.445Z,101193.08
2022-08-12T07:32:05.659Z,101184.11
2022-08-12T07:47:09.142Z,101175.77
2022-08-12T08:02:16.332Z,101170.02
2022-08-12T08:17:19.550Z,101171.48
2022-08-12T08:32:24.760Z,101169.73
2022-08-12T08:47:28.159Z,101168.13
2022-08-12T09:02:31.947Z,101155.92
2022-08-12T09:33:05.649Z,101168.45
2022-08-12T09:48:23.571Z,101165.23
2022-08-12T10:03:33.203Z,101154.31
2022-08-12T10:18:51.753Z,101143.07
2022-08-12T10:34:06.467Z,101130.95
2022-08-12T10:50:02.697Z,101115.13
2022-08-12T11:04:52.678Z,101094.96
2022-08-12T11:19:56.695Z,101076.90
2022-08-12T11:35:00.503Z,101068.58
2022-08-12T11:50:06.414Z,101070.74
2022-08-12T12:05:10.065Z,101064.69
2022-08-12T12:20:14.401Z,101052.39
2022-08-12T12:36:19.857Z,101036.19
2022-08-12T12:50:45.719Z,101028.09
2022-08-12T13:05:57.376Z,101019.66
2022-08-12T13:21:02.532Z,101006.83
2022-08-12T13:36:10.334Z,100986.77
2022-08-12T13:51:24.153Z,100980.89
2022-08-12T14:06:30.389Z,100971.52
2022-08-12T14:21:59.847Z,100963.77
2022-08-12T14:37:02.792Z,100959.34
2022-08-12T14:53:13.534Z,100949.05
2022-08-12T15:07:49.451Z,100938.16
2022-08-12T15:22:58.149Z,100927.06
2022-08-12T15:38:12.007Z,100915.71
2022-08-12T15:53:17.188Z,100913.23
2022-08-12T16:08:27.527Z,100904.19
2022-08-12T16:23:52.037Z,100897.73
2022-08-12T16:38:55.530Z,100894.58
2022-08-12T16:53:58.907Z,100891.85
2022-08-12T17:09:08.842Z,100891.06
2022-08-12T17:24:30.513Z,100892.10
2022-08-12T17:40:12.667Z,100888.61
2022-08-12T17:54:59.908Z,100892.29
2022-08-12T18:10:05.421Z,100889.80
2022-08-12T18:26:12.380Z,100894.01
2022-08-12T18:40:59.901Z,100897.62
2022-08-12T18:56:06.688Z,100904.42
2022-08-12T19:11:49.983Z,100907.20
2022-08-12T19:26:57.254Z,100906.64
2022-08-12T19:42:01.894Z,100906.63
2022-08-12T19:57:08.647Z,100911.66
2022-08-12T20:12:18.115Z,100927.02
2022-08-12T20:27:53.684Z,100922.35
2022-08-12T20:42:52.668Z,100924.28
2022-08-12T20:58:02.590Z,100928.86
2022-08-12T21:13:20.411Z,100934.94
2022-08-12T21:28:27.523Z,100941.31
2022-08-12T21:43:44.936Z,100940.63
2022-08-12T21:58:52.425Z,100941.70
2022-08-12T22:14:07.906Z,100924.81
2022-08-12T22:29:30.846Z,100926.18
2022-08-12T22:44:54.898Z,100918.95
2022-08-12T22:59:58.488Z,100914.29
2022-08-12T23:15:02.474Z,100909.31
2022-08-12T23:30:18.418Z,100899.50
2022-08-12T23:45:31.235Z,100891.65
